Haviland, Kansas
Current Conditions -  °F | °C
As of 7:35 AM on Saturday 20 Dec 2014 (Local Time) from KPTT Reporting Station
Haze Haze  
Wind Chill: 26°   Ceiling: Unl
Heat Index: 32°   Visibility: 2.5mi
Dew Point: 32°   Wind: 6mph
Humidity: 100%   Direction: 210°SSW
Pressure: 30.13"   Gusts: NA
Location:  37.62°N, 99.11°W
Report Text: KPTT 201335Z AUTO 21005KT 2 1/2SM BR CLR 00/00 A3013 RMK AO2
Loading
Personal Weather Stations






























Interactive Weather Map New forecast layout! Learn more

10-Day Weather Forecast

Advertisements
Track Severe Weather on mobile